Aviation Digital Data Service (ADDS)

Output produced by TAFs form (1300 UTC 24 July 2014)
found at http://aviationweather.gov/adds/tafs/
 
KSAF 241139Z 2412/2512 11007KT P6SM SCT100 
     TEMPO 2414/2418 01007KT 
     FM241800 23011KT P6SM SCT090 
     FM250200 VRB06KT P6SM SCT120